Terminal Aerodrome Forecast
Issued by NWS Paducah, KY

Home | Current Version | Previous Version | Text Only | Print | Product List | Glossary On
Versions: 1 2 3 4 5 6 7 8 9 10 11 12 13 14 15
000
FTUS43 KPAH 011739
TAFPAH
TAF
KPAH 011739Z 0118/0218 27003KT P6SM SCT016 BKN040 OVC070
     FM011900 29003KT 4SM BR BKN017 OVC045
     FM020100 35006KT P6SM BKN035 OVC080
      TEMPO 0203/0206 OVC040
     FM020700 35007KT P6SM OVC080
     FM021100 01006KT P6SM SCT150=

USA.gov is the U.S. government's official web portal to all federal, state and local government web resources and services.